sensor_id;sensor_type;location;lat;lon;timestamp;pressure;altitude;pressure_sealevel;temperature;humidity
39295;BME280;52361;52.100;5.248;2022-11-25T00:01:13;100815.0;;;11.01;100.0
39295;BME280;52361;52.100;5.248;2022-11-25T00:02:50;100814.0;;;10.98;100.0
39295;BME280;52361;52.100;5.248;2022-11-25T00:04:28;100812.0;;;10.98;100.0
39295;BME280;52361;52.100;5.248;2022-11-25T00:06:10;100815.0;;;11.01;100.0
39295;BME280;52361;52.100;5.248;2022-11-25T00:09:27;100814.0;;;10.99;100.0
39295;BME280;52361;52.100;5.248;2022-11-25T00:11:04;100812.0;;;11.04;100.0
39295;BME280;52361;52.100;5.248;2022-11-25T00:12:41;100809.0;;;11.01;100.0
39295;BME280;52361;52.100;5.248;2022-11-25T00:14:17;100806.0;;;11.02;100.0
39295;BME280;52361;52.100;5.248;2022-11-25T00:17:29;100803.0;;;10.95;100.0
39295;BME280;52361;52.100;5.248;2022-11-25T00:19:06;100802.0;;;11.01;100.0
39295;BME280;52361;52.100;5.248;2022-11-25T00:20:42;100796.0;;;10.96;100.0
39295;BME280;52361;52.100;5.248;2022-11-25T00:23:56;100798.0;;;10.98;100.0
39295;BME280;52361;52.100;5.248;2022-11-25T00:25:33;100796.0;;;10.96;100.0
39295;BME280;52361;52.100;5.248;2022-11-25T00:27:09;100796.0;;;11.0;100.0
39295;BME280;52361;52.100;5.248;2022-11-25T00:30:23;100790.0;;;11.06;100.0
39295;BME280;52361;52.100;5.248;2022-11-25T00:31:59;100792.0;;;10.97;100.0
39295;BME280;52361;52.100;5.248;2022-11-25T00:33:36;100797.0;;;11.08;100.0
39295;BME280;52361;52.100;5.248;2022-11-25T00:35:12;100792.0;;;11.12;100.0
39295;BME280;52361;52.100;5.248;2022-11-25T00:38:25;100788.0;;;11.11;100.0
39295;BME280;52361;52.100;5.248;2022-11-25T00:40:01;100786.0;;;11.1;100.0
39295;BME280;52361;52.100;5.248;2022-11-25T00:45:47;100783.0;;;10.97;100.0
39295;BME280;52361;52.100;5.248;2022-11-25T00:49:00;100789.0;;;11.04;100.0
39295;BME280;52361;52.100;5.248;2022-11-25T00:50:36;100783.0;;;10.74;100.0
39295;BME280;52361;52.100;5.248;2022-11-25T00:52:13;100780.0;;;10.79;100.0
39295;BME280;52361;52.100;5.248;2022-11-25T00:56:12;100778.0;;;10.93;100.0
39295;BME280;52361;52.100;5.248;2022-11-25T00:57:47;100776.0;;;10.98;100.0
39295;BME280;52361;52.100;5.248;2022-11-25T00:59:24;100770.0;;;10.94;100.0
39295;BME280;52361;52.100;5.248;2022-11-25T01:01:01;100775.0;;;11.01;100.0
39295;BME280;52361;52.100;5.248;2022-11-25T01:02:37;100776.0;;;10.96;100.0
39295;BME280;52361;52.100;5.248;2022-11-25T01:05:50;100775.0;;;10.96;100.0
39295;BME280;52361;52.100;5.248;2022-11-25T01:07:26;100775.0;;;11.03;100.0
39295;BME280;52361;52.100;5.248;2022-11-25T01:09:03;100780.0;;;10.87;100.0
39295;BME280;52361;52.100;5.248;2022-11-25T01:12:15;100780.0;;;11.07;100.0
39295;BME280;52361;52.100;5.248;2022-11-25T01:13:54;100780.0;;;10.9;100.0
39295;BME280;52361;52.100;5.248;2022-11-25T01:15:35;100778.0;;;10.92;100.0
39295;BME280;52361;52.100;5.248;2022-11-25T01:17:12;100778.0;;;10.93;100.0
39295;BME280;52361;52.100;5.248;2022-11-25T01:20:26;100771.0;;;10.77;100.0
39295;BME280;52361;52.100;5.248;2022-11-25T01:22:02;100780.0;;;10.92;100.0
39295;BME280;52361;52.100;5.248;2022-11-25T01:23:39;100778.0;;;11.04;100.0
39295;BME280;52361;52.100;5.248;2022-11-25T01:26:54;100785.0;;;11.01;100.0
39295;BME280;52361;52.100;5.248;2022-11-25T01:28:30;100783.0;;;10.97;100.0
39295;BME280;52361;52.100;5.248;2022-11-25T01:30:08;100786.0;;;10.96;100.0
39295;BME280;52361;52.100;5.248;2022-11-25T01:31:45;100785.0;;;11.06;100.0
39295;BME280;52361;52.100;5.248;2022-11-25T01:34:58;100788.0;;;10.99;100.0
39295;BME280;52361;52.100;5.248;2022-11-25T01:36:34;100795.0;;;11.1;100.0
39295;BME280;52361;52.100;5.248;2022-11-25T01:38:10;100801.0;;;11.04;100.0
39295;BME280;52361;52.100;5.248;2022-11-25T01:41:24;100790.0;;;10.96;100.0
39295;BME280;52361;52.100;5.248;2022-11-25T01:43:01;100799.0;;;11.0;100.0
39295;BME280;52361;52.100;5.248;2022-11-25T01:44:38;100806.0;;;10.96;100.0
39295;BME280;52361;52.100;5.248;2022-11-25T01:48:02;100801.0;;;10.81;100.0
39295;BME280;52361;52.100;5.248;2022-11-25T01:49:49;100814.0;;;10.72;100.0
39295;BME280;52361;52.100;5.248;2022-11-25T01:51:39;100822.0;;;10.76;100.0
39295;BME280;52361;52.100;5.248;2022-11-25T01:53:21;100825.0;;;10.81;100.0
39295;BME280;52361;52.100;5.248;2022-11-25T01:55:01;100830.0;;;10.8;100.0
39295;BME280;52361;52.100;5.248;2022-11-25T01:58:27;100827.0;;;10.89;100.0
39295;BME280;52361;52.100;5.248;2022-11-25T02:00:06;100825.0;;;11.08;100.0
39295;BME280;52361;52.100;5.248;2022-11-25T02:01:44;100815.0;;;11.05;100.0
39295;BME280;52361;52.100;5.248;2022-11-25T02:03:22;100817.0;;;11.11;100.0
39295;BME280;52361;52.100;5.248;2022-11-25T02:06:47;100816.0;;;11.21;100.0
39295;BME280;52361;52.100;5.248;2022-11-25T02:08:28;100822.0;;;11.26;100.0
39295;BME280;52361;52.100;5.248;2022-11-25T02:10:09;100822.0;;;11.17;100.0
39295;BME280;52361;52.100;5.248;2022-11-25T02:11:46;100821.0;;;11.22;100.0
39295;BME280;52361;52.100;5.248;2022-11-25T02:15:02;100819.0;;;11.25;100.0
39295;BME280;52361;52.100;5.248;2022-11-25T02:16:39;100817.0;;;11.25;100.0
39295;BME280;52361;52.100;5.248;2022-11-25T02:18:15;100823.0;;;11.31;100.0
39295;BME280;52361;52.100;5.248;2022-11-25T02:19:58;100823.0;;;11.22;100.0
39295;BME280;52361;52.100;5.248;2022-11-25T02:23:26;100823.0;;;11.32;100.0
39295;BME280;52361;52.100;5.248;2022-11-25T02:25:19;100824.0;;;11.34;100.0
39295;BME280;52361;52.100;5.248;2022-11-25T02:26:58;100822.0;;;11.35;100.0
39295;BME280;52361;52.100;5.248;2022-11-25T02:28:35;100823.0;;;11.36;100.0
39295;BME280;52361;52.100;5.248;2022-11-25T02:31:49;100824.0;;;11.33;100.0
39295;BME280;52361;52.100;5.248;2022-11-25T02:33:26;100818.0;;;11.27;100.0
39295;BME280;52361;52.100;5.248;2022-11-25T02:35:22;100809.0;;;11.27;100.0
39295;BME280;52361;52.100;5.248;2022-11-25T02:37:14;100791.0;;;11.35;100.0
39295;BME280;52361;52.100;5.248;2022-11-25T02:38:55;100791.0;;;11.17;100.0
39295;BME280;52361;52.100;5.248;2022-11-25T02:42:14;100784.0;;;11.15;100.0
39295;BME280;52361;52.100;5.248;2022-11-25T02:43:52;100802.0;;;11.22;100.0
39295;BME280;52361;52.100;5.248;2022-11-25T02:45:39;100821.0;;;11.27;100.0
39295;BME280;52361;52.100;5.248;2022-11-25T02:47:19;100814.0;;;11.34;100.0
39295;BME280;52361;52.100;5.248;2022-11-25T02:50:35;100820.0;;;11.37;100.0
39295;BME280;52361;52.100;5.248;2022-11-25T02:52:11;100820.0;;;11.38;100.0
39295;BME280;52361;52.100;5.248;2022-11-25T02:53:47;100819.0;;;11.37;100.0
39295;BME280;52361;52.100;5.248;2022-11-25T02:55:24;100815.0;;;11.39;100.0
39295;BME280;52361;52.100;5.248;2022-11-25T02:58:37;100825.0;;;11.47;100.0
39295;BME280;52361;52.100;5.248;2022-11-25T03:00:15;100826.0;;;11.47;100.0
39295;BME280;52361;52.100;5.248;2022-11-25T03:01:52;100823.0;;;11.49;100.0
39295;BME280;52361;52.100;5.248;2022-11-25T03:05:04;100830.0;;;11.53;100.0
39295;BME280;52361;52.100;5.248;2022-11-25T03:06:40;100821.0;;;11.48;100.0
39295;BME280;52361;52.100;5.248;2022-11-25T03:08:17;100826.0;;;11.41;100.0
39295;BME280;52361;52.100;5.248;2022-11-25T03:12:28;100826.0;;;11.36;100.0
39295;BME280;52361;52.100;5.248;2022-11-25T03:14:10;100830.0;;;11.42;100.0
39295;BME280;52361;52.100;5.248;2022-11-25T03:15:46;100822.0;;;11.41;100.0
39295;BME280;52361;52.100;5.248;2022-11-25T03:17:24;100817.0;;;11.39;100.0
39295;BME280;52361;52.100;5.248;2022-11-25T03:19:00;100816.0;;;11.4;100.0
39295;BME280;52361;52.100;5.248;2022-11-25T03:20:36;100820.0;;;11.48;100.0
39295;BME280;52361;52.100;5.248;2022-11-25T03:23:49;100821.0;;;11.47;100.0
39295;BME280;52361;52.100;5.248;2022-11-25T03:25:25;100825.0;;;11.38;100.0
39295;BME280;52361;52.100;5.248;2022-11-25T03:27:03;100826.0;;;11.3;100.0
39295;BME280;52361;52.100;5.248;2022-11-25T03:30:17;100825.0;;;11.48;100.0
39295;BME280;52361;52.100;5.248;2022-11-25T03:31:55;100838.0;;;11.37;100.0
39295;BME280;52361;52.100;5.248;2022-11-25T03:33:31;100845.0;;;11.41;100.0
39295;BME280;52361;52.100;5.248;2022-11-25T03:35:08;100843.0;;;11.5;100.0
39295;BME280;52361;52.100;5.248;2022-11-25T03:38:22;100842.0;;;11.5;100.0
39295;BME280;52361;52.100;5.248;2022-11-25T03:39:58;100839.0;;;11.47;100.0
39295;BME280;52361;52.100;5.248;2022-11-25T03:41:34;100843.0;;;11.47;100.0
39295;BME280;52361;52.100;5.248;2022-11-25T03:44:47;100843.0;;;11.48;100.0
39295;BME280;52361;52.100;5.248;2022-11-25T03:46:23;100846.0;;;11.53;100.0
39295;BME280;52361;52.100;5.248;2022-11-25T03:47:59;100842.0;;;11.56;100.0
39295;BME280;52361;52.100;5.248;2022-11-25T03:51:11;100847.0;;;11.43;100.0
39295;BME280;52361;52.100;5.248;2022-11-25T03:52:48;100855.0;;;11.43;100.0
39295;BME280;52361;52.100;5.248;2022-11-25T03:54:24;100856.0;;;11.41;100.0
39295;BME280;52361;52.100;5.248;2022-11-25T03:56:01;100859.0;;;11.33;100.0
39295;BME280;52361;52.100;5.248;2022-11-25T03:59:13;100869.0;;;11.45;100.0
39295;BME280;52361;52.100;5.248;2022-11-25T04:00:49;100864.0;;;11.39;100.0
39295;BME280;52361;52.100;5.248;2022-11-25T04:02:27;100861.0;;;11.4;100.0
39295;BME280;52361;52.100;5.248;2022-11-25T04:05:40;100865.0;;;11.4;100.0
39295;BME280;52361;52.100;5.248;2022-11-25T04:07:16;100871.0;;;11.35;100.0
39295;BME280;52361;52.100;5.248;2022-11-25T04:08:53;100872.0;;;11.31;100.0
39295;BME280;52361;52.100;5.248;2022-11-25T04:13:10;100876.0;;;11.28;100.0
39295;BME280;52361;52.100;5.248;2022-11-25T04:14:46;100882.0;;;11.32;100.0
39295;BME280;52361;52.100;5.248;2022-11-25T04:16:24;100875.0;;;11.34;100.0
39295;BME280;52361;52.100;5.248;2022-11-25T04:18:01;100887.0;;;11.24;100.0
39295;BME280;52361;52.100;5.248;2022-11-25T04:19:37;100885.0;;;11.29;100.0
39295;BME280;52361;52.100;5.248;2022-11-25T04:21:13;100889.0;;;11.23;100.0
39295;BME280;52361;52.100;5.248;2022-11-25T04:24:26;100887.0;;;11.18;100.0
39295;BME280;52361;52.100;5.248;2022-11-25T04:26:03;100891.0;;;11.21;100.0
39295;BME280;52361;52.100;5.248;2022-11-25T04:27:40;100887.0;;;11.23;100.0
39295;BME280;52361;52.100;5.248;2022-11-25T04:30:52;100888.0;;;11.27;100.0
39295;BME280;52361;52.100;5.248;2022-11-25T04:34:04;100895.0;;;11.31;100.0
39295;BME280;52361;52.100;5.248;2022-11-25T04:38:53;100892.0;;;11.17;100.0
39295;BME280;52361;52.100;5.248;2022-11-25T04:40:29;100893.0;;;11.14;100.0
39295;BME280;52361;52.100;5.248;2022-11-25T04:42:38;100902.0;;;11.14;100.0
39295;BME280;52361;52.100;5.248;2022-11-25T04:44:15;100906.0;;;10.99;100.0
39295;BME280;52361;52.100;5.248;2022-11-25T04:47:29;100909.0;;;10.98;100.0
39295;BME280;52361;52.100;5.248;2022-11-25T04:49:05;100913.0;;;10.96;100.0
39295;BME280;52361;52.100;5.248;2022-11-25T04:50:43;100925.0;;;10.86;100.0
39295;BME280;52361;52.100;5.248;2022-11-25T04:53:56;100922.0;;;10.86;100.0
39295;BME280;52361;52.100;5.248;2022-11-25T04:55:32;100921.0;;;10.8;100.0
39295;BME280;52361;52.100;5.248;2022-11-25T04:57:11;100927.0;;;10.77;100.0
39295;BME280;52361;52.100;5.248;2022-11-25T04:59:52;100934.0;;;10.79;100.0
39295;BME280;52361;52.100;5.248;2022-11-25T05:01:29;100931.0;;;10.67;100.0
39295;BME280;52361;52.100;5.248;2022-11-25T05:03:06;100938.0;;;10.67;100.0
39295;BME280;52361;52.100;5.248;2022-11-25T05:06:22;100945.0;;;10.73;100.0
39295;BME280;52361;52.100;5.248;2022-11-25T05:07:59;100944.0;;;10.71;100.0
39295;BME280;52361;52.100;5.248;2022-11-25T05:09:37;100944.0;;;10.74;100.0
39295;BME280;52361;52.100;5.248;2022-11-25T05:12:49;100945.0;;;10.72;100.0
39295;BME280;52361;52.100;5.248;2022-11-25T05:14:25;100946.0;;;10.68;100.0
39295;BME280;52361;52.100;5.248;2022-11-25T05:16:01;100951.0;;;10.66;100.0
39295;BME280;52361;52.100;5.248;2022-11-25T05:17:37;100949.0;;;10.61;100.0
39295;BME280;52361;52.100;5.248;2022-11-25T05:20:49;100948.0;;;10.47;100.0
39295;BME280;52361;52.100;5.248;2022-11-25T05:22:28;100952.0;;;10.4;100.0
39295;BME280;52361;52.100;5.248;2022-11-25T05:24:05;100955.0;;;10.42;100.0
39295;BME280;52361;52.100;5.248;2022-11-25T05:27:19;100955.0;;;10.36;100.0
39295;BME280;52361;52.100;5.248;2022-11-25T05:28:55;100960.0;;;10.38;100.0
39295;BME280;52361;52.100;5.248;2022-11-25T05:30:31;100968.0;;;10.26;100.0
39295;BME280;52361;52.100;5.248;2022-11-25T05:33:43;100968.0;;;10.37;100.0
39295;BME280;52361;52.100;5.248;2022-11-25T05:35:20;100970.0;;;10.36;100.0
39295;BME280;52361;52.100;5.248;2022-11-25T05:36:57;100969.0;;;10.32;100.0
39295;BME280;52361;52.100;5.248;2022-11-25T05:38:34;100971.0;;;10.32;100.0
39295;BME280;52361;52.100;5.248;2022-11-25T05:41:47;100978.0;;;10.29;100.0
39295;BME280;52361;52.100;5.248;2022-11-25T05:43:23;100982.0;;;10.26;100.0
39295;BME280;52361;52.100;5.248;2022-11-25T05:45:00;100977.0;;;10.3;100.0
39295;BME280;52361;52.100;5.248;2022-11-25T05:48:14;100980.0;;;10.3;100.0
39295;BME280;52361;52.100;5.248;2022-11-25T05:49:50;100975.0;;;10.31;100.0
39295;BME280;52361;52.100;5.248;2022-11-25T05:51:27;100980.0;;;10.21;100.0
39295;BME280;52361;52.100;5.248;2022-11-25T05:54:41;100980.0;;;10.21;100.0
39295;BME280;52361;52.100;5.248;2022-11-25T05:56:16;100978.0;;;10.14;100.0
39295;BME280;52361;52.100;5.248;2022-11-25T05:57:52;100980.0;;;10.07;100.0
39295;BME280;52361;52.100;5.248;2022-11-25T05:59:28;100980.0;;;10.1;100.0
39295;BME280;52361;52.100;5.248;2022-11-25T06:02:43;100980.0;;;10.19;100.0
39295;BME280;52361;52.100;5.248;2022-11-25T06:04:19;100983.0;;;10.13;100.0
39295;BME280;52361;52.100;5.248;2022-11-25T06:05:56;100986.0;;;10.16;100.0
39295;BME280;52361;52.100;5.248;2022-11-25T06:09:09;100990.0;;;10.14;100.0
39295;BME280;52361;52.100;5.248;2022-11-25T06:10:45;100989.0;;;10.17;100.0
39295;BME280;52361;52.100;5.248;2022-11-25T06:12:21;100996.0;;;10.22;100.0
39295;BME280;52361;52.100;5.248;2022-11-25T06:15:34;101000.0;;;10.08;100.0
39295;BME280;52361;52.100;5.248;2022-11-25T06:17:15;100999.0;;;10.05;100.0
39295;BME280;52361;52.100;5.248;2022-11-25T06:18:52;101002.0;;;10.16;100.0
39295;BME280;52361;52.100;5.248;2022-11-25T06:20:28;101010.0;;;10.11;100.0
39295;BME280;52361;52.100;5.248;2022-11-25T06:23:40;101011.0;;;10.14;100.0
39295;BME280;52361;52.100;5.248;2022-11-25T06:25:17;101011.0;;;10.11;100.0
39295;BME280;52361;52.100;5.248;2022-11-25T06:26:53;101017.0;;;10.02;100.0
39295;BME280;52361;52.100;5.248;2022-11-25T06:30:06;101017.0;;;10.1;100.0
39295;BME280;52361;52.100;5.248;2022-11-25T06:31:42;101016.0;;;10.11;100.0
39295;BME280;52361;52.100;5.248;2022-11-25T06:33:18;101013.0;;;10.07;100.0
39295;BME280;52361;52.100;5.248;2022-11-25T06:36:31;101023.0;;;10.09;100.0
39295;BME280;52361;52.100;5.248;2022-11-25T06:38:07;101023.0;;;10.13;100.0
39295;BME280;52361;52.100;5.248;2022-11-25T06:39:43;101027.0;;;10.08;100.0
39295;BME280;52361;52.100;5.248;2022-11-25T06:41:21;101035.0;;;9.9;100.0
39295;BME280;52361;52.100;5.248;2022-11-25T06:44:34;101034.0;;;10.0;100.0
39295;BME280;52361;52.100;5.248;2022-11-25T06:46:12;101036.0;;;9.99;100.0
39295;BME280;52361;52.100;5.248;2022-11-25T06:47:51;101039.0;;;9.89;100.0
39295;BME280;52361;52.100;5.248;2022-11-25T06:51:06;101046.0;;;9.99;100.0
39295;BME280;52361;52.100;5.248;2022-11-25T06:52:46;101048.0;;;9.96;100.0
39295;BME280;52361;52.100;5.248;2022-11-25T06:54:22;101050.0;;;9.93;100.0
39295;BME280;52361;52.100;5.248;2022-11-25T06:56:01;101057.0;;;9.92;100.0
39295;BME280;52361;52.100;5.248;2022-11-25T06:59:21;101057.0;;;9.89;100.0
39295;BME280;52361;52.100;5.248;2022-11-25T07:01:00;101056.0;;;9.91;100.0
39295;BME280;52361;52.100;5.248;2022-11-25T07:02:37;101060.0;;;9.89;100.0
39295;BME280;52361;52.100;5.248;2022-11-25T07:05:49;101062.0;;;9.89;100.0
39295;BME280;52361;52.100;5.248;2022-11-25T07:07:25;101065.0;;;9.88;100.0
39295;BME280;52361;52.100;5.248;2022-11-25T07:09:02;101063.0;;;9.96;100.0
39295;BME280;52361;52.100;5.248;2022-11-25T07:10:40;101069.0;;;9.76;100.0
39295;BME280;52361;52.100;5.248;2022-11-25T07:13:54;101069.0;;;9.65;100.0
39295;BME280;52361;52.100;5.248;2022-11-25T07:15:33;101075.0;;;9.69;100.0
39295;BME280;52361;52.100;5.248;2022-11-25T07:17:09;101078.0;;;9.71;100.0
39295;BME280;52361;52.100;5.248;2022-11-25T07:20:24;101085.0;;;9.81;100.0
39295;BME280;52361;52.100;5.248;2022-11-25T07:22:00;101089.0;;;9.8;100.0
39295;BME280;52361;52.100;5.248;2022-11-25T07:23:38;101090.0;;;9.74;100.0
39295;BME280;52361;52.100;5.248;2022-11-25T07:25:15;101095.0;;;9.76;100.0
39295;BME280;52361;52.100;5.248;2022-11-25T07:28:28;101096.0;;;9.75;100.0
39295;BME280;52361;52.100;5.248;2022-11-25T07:30:05;101094.0;;;9.69;100.0
39295;BME280;52361;52.100;5.248;2022-11-25T07:31:44;101096.0;;;9.6;100.0
39295;BME280;52361;52.100;5.248;2022-11-25T07:34:57;101101.0;;;9.6;100.0
39295;BME280;52361;52.100;5.248;2022-11-25T07:36:34;101105.0;;;9.61;100.0
39295;BME280;52361;52.100;5.248;2022-11-25T07:38:10;101107.0;;;9.64;100.0
39295;BME280;52361;52.100;5.248;2022-11-25T07:41:25;101116.0;;;9.56;100.0
39295;BME280;52361;52.100;5.248;2022-11-25T07:43:02;101118.0;;;9.6;100.0
39295;BME280;52361;52.100;5.248;2022-11-25T07:44:39;101122.0;;;9.56;100.0
39295;BME280;52361;52.100;5.248;2022-11-25T07:46:17;101121.0;;;9.58;100.0
39295;BME280;52361;52.100;5.248;2022-11-25T07:49:30;101128.0;;;9.55;100.0
39295;BME280;52361;52.100;5.248;2022-11-25T07:51:13;101130.0;;;9.53;100.0
39295;BME280;52361;52.100;5.248;2022-11-25T07:52:49;101135.0;;;9.59;100.0
39295;BME280;52361;52.100;5.248;2022-11-25T07:56:02;101139.0;;;9.63;100.0
39295;BME280;52361;52.100;5.248;2022-11-25T07:57:39;101133.0;;;9.56;100.0
39295;BME280;52361;52.100;5.248;2022-11-25T07:59:16;101142.0;;;9.58;100.0
39295;BME280;52361;52.100;5.248;2022-11-25T08:00:54;101147.0;;;9.64;100.0
39295;BME280;52361;52.100;5.248;2022-11-25T08:04:10;101141.0;;;9.65;100.0
39295;BME280;52361;52.100;5.248;2022-11-25T08:05:47;101144.0;;;9.66;100.0
39295;BME280;52361;52.100;5.248;2022-11-25T08:07:23;101150.0;;;9.77;100.0
39295;BME280;52361;52.100;5.248;2022-11-25T08:10:38;101155.0;;;9.76;100.0
39295;BME280;52361;52.100;5.248;2022-11-25T08:12:14;101157.0;;;9.81;100.0
39295;BME280;52361;52.100;5.248;2022-11-25T08:13:51;101161.0;;;9.84;100.0
39295;BME280;52361;52.100;5.248;2022-11-25T08:15:28;101168.0;;;9.96;100.0
39295;BME280;52361;52.100;5.248;2022-11-25T08:18:41;101176.0;;;9.99;100.0
39295;BME280;52361;52.100;5.248;2022-11-25T08:20:18;101175.0;;;10.06;100.0
39295;BME280;52361;52.100;5.248;2022-11-25T08:21:54;101174.0;;;10.07;100.0
39295;BME280;52361;52.100;5.248;2022-11-25T08:25:08;101175.0;;;10.13;100.0
39295;BME280;52361;52.100;5.248;2022-11-25T08:26:45;101186.0;;;10.14;100.0
39295;BME280;52361;52.100;5.248;2022-11-25T08:28:22;101188.0;;;10.26;100.0
39295;BME280;52361;52.100;5.248;2022-11-25T08:31:37;101180.0;;;10.28;100.0
39295;BME280;52361;52.100;5.248;2022-11-25T08:33:14;101192.0;;;10.27;100.0
39295;BME280;52361;52.100;5.248;2022-11-25T08:34:51;101199.0;;;10.35;100.0
39295;BME280;52361;52.100;5.248;2022-11-25T08:36:28;101196.0;;;10.35;100.0
39295;BME280;52361;52.100;5.248;2022-11-25T08:39:50;101202.0;;;10.32;100.0
39295;BME280;52361;52.100;5.248;2022-11-25T08:41:28;101195.0;;;10.42;100.0
39295;BME280;52361;52.100;5.248;2022-11-25T08:43:06;101202.0;;;10.51;100.0
39295;BME280;52361;52.100;5.248;2022-11-25T08:44:42;101201.0;;;10.51;100.0
39295;BME280;52361;52.100;5.248;2022-11-25T08:48:01;101202.0;;;10.61;100.0
39295;BME280;52361;52.100;5.248;2022-11-25T08:49:37;101208.0;;;10.67;100.0
39295;BME280;52361;52.100;5.248;2022-11-25T08:51:16;101209.0;;;10.7;100.0
39295;BME280;52361;52.100;5.248;2022-11-25T08:54:30;101213.0;;;10.78;100.0
39295;BME280;52361;52.100;5.248;2022-11-25T08:56:06;101211.0;;;10.82;100.0
39295;BME280;52361;52.100;5.248;2022-11-25T08:57:43;101215.0;;;10.83;100.0
39295;BME280;52361;52.100;5.248;2022-11-25T09:00:57;101211.0;;;10.94;100.0
39295;BME280;52361;52.100;5.248;2022-11-25T09:02:34;101220.0;;;10.95;100.0
39295;BME280;52361;52.100;5.248;2022-11-25T09:04:11;101221.0;;;10.9;100.0
39295;BME280;52361;52.100;5.248;2022-11-25T09:05:48;101228.0;;;10.91;100.0
39295;BME280;52361;52.100;5.248;2022-11-25T09:09:01;101225.0;;;11.01;100.0
39295;BME280;52361;52.100;5.248;2022-11-25T09:10:39;101233.0;;;11.06;100.0
39295;BME280;52361;52.100;5.248;2022-11-25T09:12:16;101240.0;;;11.05;100.0
39295;BME280;52361;52.100;5.248;2022-11-25T09:15:29;101245.0;;;11.06;100.0
39295;BME280;52361;52.100;5.248;2022-11-25T09:17:08;101242.0;;;11.02;100.0
39295;BME280;52361;52.100;5.248;2022-11-25T09:18:45;101251.0;;;11.02;100.0
39295;BME280;52361;52.100;5.248;2022-11-25T09:20:22;101256.0;;;11.13;100.0
39295;BME280;52361;52.100;5.248;2022-11-25T09:23:34;101258.0;;;11.13;100.0
39295;BME280;52361;52.100;5.248;2022-11-25T09:25:10;101255.0;;;11.02;100.0
39295;BME280;52361;52.100;5.248;2022-11-25T09:26:48;101259.0;;;11.09;100.0
39295;BME280;52361;52.100;5.248;2022-11-25T09:30:02;101265.0;;;11.17;100.0
39295;BME280;52361;52.100;5.248;2022-11-25T09:31:39;101268.0;;;11.29;100.0
39295;BME280;52361;52.100;5.248;2022-11-25T09:33:16;101274.0;;;11.42;100.0
39295;BME280;52361;52.100;5.248;2022-11-25T09:36:28;101275.0;;;11.4;100.0
39295;BME280;52361;52.100;5.248;2022-11-25T09:38:05;101280.0;;;11.51;100.0
39295;BME280;52361;52.100;5.248;2022-11-25T09:39:41;101281.0;;;11.79;100.0
39295;BME280;52361;52.100;5.248;2022-11-25T09:46:30;101284.0;;;12.03;100.0
39295;BME280;52361;52.100;5.248;2022-11-25T09:48:23;101287.0;;;12.48;100.0
39295;BME280;52361;52.100;5.248;2022-11-25T09:50:16;101287.0;;;12.58;100.0
39295;BME280;52361;52.100;5.248;2022-11-25T09:52:06;101291.0;;;12.76;100.0
39295;BME280;52361;52.100;5.248;2022-11-25T09:53:50;101291.0;;;12.88;100.0
39295;BME280;52361;52.100;5.248;2022-11-25T09:57:18;101294.0;;;13.04;99.98
39295;BME280;52361;52.100;5.248;2022-11-25T09:58:59;101305.0;;;13.0;99.37
39295;BME280;52361;52.100;5.248;2022-11-25T10:00:41;101303.0;;;12.93;97.72
39295;BME280;52361;52.100;5.248;2022-11-25T10:02:23;101301.0;;;13.03;97.46
39295;BME280;52361;52.100;5.248;2022-11-25T10:05:52;101300.0;;;13.0;97.58
39295;BME280;52361;52.100;5.248;2022-11-25T10:07:35;101305.0;;;13.02;97.39
39295;BME280;52361;52.100;5.248;2022-11-25T10:09:16;101305.0;;;12.87;97.92
39295;BME280;52361;52.100;5.248;2022-11-25T10:10:58;101309.0;;;12.98;96.48
39295;BME280;52361;52.100;5.248;2022-11-25T10:12:42;101314.0;;;13.06;96.08
39295;BME280;52361;52.100;5.248;2022-11-25T10:16:29;101315.0;;;12.88;97.29
39295;BME280;52361;52.100;5.248;2022-11-25T10:18:14;101311.0;;;13.17;97.52
39295;BME280;52361;52.100;5.248;2022-11-25T10:19:58;101316.0;;;13.21;97.43
39295;BME280;52361;52.100;5.248;2022-11-25T10:21:38;101323.0;;;13.36;96.45
39295;BME280;52361;52.100;5.248;2022-11-25T10:23:23;101322.0;;;13.31;95.25
39295;BME280;52361;52.100;5.248;2022-11-25T10:26:56;101323.0;;;13.15;96.14
39295;BME280;52361;52.100;5.248;2022-11-25T10:28:36;101332.0;;;13.02;97.27
39295;BME280;52361;52.100;5.248;2022-11-25T10:30:18;101332.0;;;13.07;97.83
39295;BME280;52361;52.100;5.248;2022-11-25T10:32:02;101335.0;;;12.83;97.4
39295;BME280;52361;52.100;5.248;2022-11-25T10:33:55;101341.0;;;12.84;98.87
39295;BME280;52361;52.100;5.248;2022-11-25T10:37:23;101338.0;;;12.88;99.15
39295;BME280;52361;52.100;5.248;2022-11-25T10:39:08;101338.0;;;12.69;98.41
39295;BME280;52361;52.100;5.248;2022-11-25T10:40:49;101345.0;;;12.64;98.15
39295;BME280;52361;52.100;5.248;2022-11-25T10:42:28;101342.0;;;12.73;99.67
39295;BME280;52361;52.100;5.248;2022-11-25T10:44:08;101347.0;;;12.64;100.0
39295;BME280;52361;52.100;5.248;2022-11-25T10:48:01;101350.0;;;12.69;99.81
39295;BME280;52361;52.100;5.248;2022-11-25T10:50:06;101357.0;;;12.69;100.0
39295;BME280;52361;52.100;5.248;2022-11-25T10:51:45;101361.0;;;12.64;99.85
39295;BME280;52361;52.100;5.248;2022-11-25T10:53:24;101366.0;;;12.66;100.0
39295;BME280;52361;52.100;5.248;2022-11-25T10:55:10;101371.0;;;12.57;99.91
39295;BME280;52361;52.100;5.248;2022-11-25T10:56:50;101371.0;;;12.67;100.0
39295;BME280;52361;52.100;5.248;2022-11-25T11:00:26;101377.0;;;12.65;100.0
39295;BME280;52361;52.100;5.248;2022-11-25T11:02:13;101376.0;;;12.81;100.0
39295;BME280;52361;52.100;5.248;2022-11-25T11:04:02;101381.0;;;12.95;100.0
39295;BME280;52361;52.100;5.248;2022-11-25T11:05:44;101382.0;;;13.03;99.6
39295;BME280;52361;52.100;5.248;2022-11-25T11:07:23;101393.0;;;13.12;98.61
39295;BME280;52361;52.100;5.248;2022-11-25T11:10:37;101388.0;;;13.18;98.39
39295;BME280;52361;52.100;5.248;2022-11-25T11:12:18;101397.0;;;13.2;98.83
39295;BME280;52361;52.100;5.248;2022-11-25T11:14:11;101397.0;;;13.11;100.0
39295;BME280;52361;52.100;5.248;2022-11-25T11:15:49;101401.0;;;13.12;99.9
39295;BME280;52361;52.100;5.248;2022-11-25T11:17:32;101407.0;;;13.08;100.0